createdAt,value
2018-12-15T00:00:38.811Z,1023.76
2018-12-15T00:01:38.870Z,1023.69
2018-12-15T00:02:38.809Z,1023.66
2018-12-15T00:03:38.794Z,1023.70
2018-12-15T00:04:38.772Z,1023.66
2018-12-15T00:05:38.796Z,1023.64
2018-12-15T00:06:38.753Z,1023.68
2018-12-15T00:07:38.764Z,1023.72
2018-12-15T00:08:38.736Z,1023.68
2018-12-15T00:09:38.721Z,1023.73
2018-12-15T00:10:38.804Z,1023.73
2018-12-15T00:11:38.767Z,1023.76
2018-12-15T00:12:38.709Z,1023.75
2018-12-15T00:13:38.757Z,1023.79
2018-12-15T00:14:38.760Z,1023.77
2018-12-15T00:15:38.651Z,1023.79
2018-12-15T00:16:38.638Z,1023.77
2018-12-15T00:17:38.661Z,1023.77
2018-12-15T00:18:38.624Z,1023.78
2018-12-15T00:19:38.718Z,1023.80
2018-12-15T00:20:38.602Z,1023.84
2018-12-15T00:21:38.610Z,1023.74
2018-12-15T00:22:38.597Z,1023.71
2018-12-15T00:23:38.575Z,1023.79
2018-12-15T00:24:38.589Z,1023.71
2018-12-15T00:25:38.549Z,1023.71
2018-12-15T00:26:38.548Z,1023.73
2018-12-15T00:27:38.552Z,1023.71
2018-12-15T00:28:38.519Z,1023.73
2018-12-15T00:29:38.501Z,1023.74
2018-12-15T00:30:38.495Z,1023.79
2018-12-15T00:31:38.483Z,1023.78
2018-12-15T00:32:38.493Z,1023.83
2018-12-15T00:33:38.463Z,1023.80
2018-12-15T00:34:38.479Z,1023.81
2018-12-15T00:35:38.439Z,1023.80
2018-12-15T00:36:38.427Z,1023.83
2018-12-15T00:37:38.435Z,1023.87
2018-12-15T00:38:38.427Z,1023.85
2018-12-15T00:39:38.427Z,1023.85
2018-12-15T00:40:38.383Z,1023.86
2018-12-15T00:41:38.376Z,1023.81
2018-12-15T00:42:38.374Z,1023.83
2018-12-15T00:43:38.378Z,1023.84
2018-12-15T00:44:38.377Z,1023.87
2018-12-15T00:45:38.337Z,1023.86
2018-12-15T00:46:38.317Z,1023.82
2018-12-15T00:47:38.306Z,1023.85
2018-12-15T00:48:38.300Z,1023.89
2018-12-15T00:49:38.299Z,1023.85
2018-12-15T00:50:38.307Z,1023.87
2018-12-15T00:51:38.307Z,1023.82
2018-12-15T00:52:38.338Z,1023.89
2018-12-15T00:53:38.264Z,1023.92
2018-12-15T00:54:38.275Z,1023.90
2018-12-15T00:55:38.246Z,1023.88
2018-12-15T00:56:38.222Z,1023.94
2018-12-15T00:57:38.238Z,1023.93
2018-12-15T00:58:38.195Z,1023.95
2018-12-15T00:59:38.219Z,1023.94
2018-12-15T01:00:38.169Z,1023.95
2018-12-15T01:01:38.164Z,1023.96
2018-12-15T01:02:38.181Z,1023.91
2018-12-15T01:03:38.146Z,1023.92
2018-12-15T01:04:38.144Z,1023.96
2018-12-15T01:05:38.128Z,1023.93
2018-12-15T01:06:38.108Z,1023.97
2018-12-15T01:07:38.127Z,1023.97
2018-12-15T01:08:38.104Z,1023.95
2018-12-15T01:09:38.073Z,1023.98
2018-12-15T01:10:38.075Z,1023.97
2018-12-15T01:11:38.072Z,1023.96
2018-12-15T01:12:38.065Z,1023.95
2018-12-15T01:13:38.031Z,1023.92
2018-12-15T01:14:38.028Z,1023.95
2018-12-15T01:15:38.020Z,1023.93
2018-12-15T01:16:38.011Z,1023.95
2018-12-15T01:17:38.022Z,1023.94
2018-12-15T01:18:38.007Z,1023.95
2018-12-15T01:19:37.970Z,1023.92
2018-12-15T01:20:37.957Z,1023.93
2018-12-15T01:21:37.944Z,1023.95
2018-12-15T01:22:37.977Z,1023.96
2018-12-15T01:23:37.931Z,1023.97
2018-12-15T01:24:37.923Z,1023.95
2018-12-15T01:25:37.909Z,1023.99
2018-12-15T01:26:37.899Z,1023.96
2018-12-15T01:27:37.900Z,1023.92
2018-12-15T01:28:37.902Z,1023.95
2018-12-15T01:29:37.873Z,1023.97
2018-12-15T01:30:37.858Z,1023.96
2018-12-15T01:31:37.849Z,1023.97
2018-12-15T01:32:37.833Z,1024.00
2018-12-15T01:33:37.879Z,1024.00
2018-12-15T01:34:37.816Z,1023.97
2018-12-15T01:35:37.807Z,1023.99
2018-12-15T01:36:37.791Z,1023.98
2018-12-15T01:37:37.792Z,1023.97
2018-12-15T01:38:37.772Z,1023.99
2018-12-15T01:39:37.783Z,1023.99
2018-12-15T01:40:37.746Z,1023.99
2018-12-15T01:41:37.737Z,1024.00
2018-12-15T01:42:37.737Z,1024.03
2018-12-15T01:43:37.720Z,1024.00
2018-12-15T01:44:37.724Z,1024.02
2018-12-15T01:45:37.693Z,1023.98
2018-12-15T01:46:37.695Z,1024.04
2018-12-15T01:47:37.693Z,1024.02
2018-12-15T01:48:37.669Z,1023.98
2018-12-15T01:49:37.693Z,1024.01
2018-12-15T01:50:37.636Z,1023.94
2018-12-15T01:51:37.625Z,1023.98
2018-12-15T01:52:37.621Z,1023.99
2018-12-15T01:53:37.632Z,1023.97
2018-12-15T01:54:37.603Z,1023.97
2018-12-15T01:55:37.626Z,1023.96
2018-12-15T01:56:37.578Z,1023.91
2018-12-15T01:57:37.568Z,1023.95
2018-12-15T01:58:37.553Z,1023.93
2018-12-15T01:59:37.559Z,1023.90
2018-12-15T02:00:37.535Z,1023.89
2018-12-15T02:01:37.524Z,1023.88
2018-12-15T02:02:37.503Z,1023.91
2018-12-15T02:03:37.493Z,1023.93
2018-12-15T02:04:37.514Z,1023.89
2018-12-15T02:05:37.475Z,1023.89
2018-12-15T02:06:37.468Z,1023.86
2018-12-15T02:07:37.456Z,1023.89
2018-12-15T02:08:37.458Z,1023.90
2018-12-15T02:09:37.435Z,1023.90
2018-12-15T02:10:37.439Z,1023.89
2018-12-15T02:11:37.408Z,1023.92
2018-12-15T02:12:37.396Z,1023.90
2018-12-15T02:13:37.388Z,1023.90
2018-12-15T02:14:37.382Z,1023.90
2018-12-15T02:15:37.413Z,1023.90
2018-12-15T02:16:37.354Z,1023.95
2018-12-15T02:17:37.345Z,1023.92
2018-12-15T02:18:37.341Z,1023.92
2018-12-15T02:19:37.334Z,1023.93
2018-12-15T02:20:37.318Z,1023.91
2018-12-15T02:21:37.328Z,1023.96
2018-12-15T02:22:37.291Z,1023.93
2018-12-15T02:23:37.281Z,1023.96
2018-12-15T02:24:37.305Z,1023.96
2018-12-15T02:25:37.259Z,1023.95
2018-12-15T02:26:37.275Z,1023.94
2018-12-15T02:27:37.247Z,1023.91
2018-12-15T02:28:37.239Z,1023.90
2018-12-15T02:29:37.242Z,1023.87
2018-12-15T02:30:37.237Z,1023.86
2018-12-15T02:31:37.219Z,1023.83
2018-12-15T02:32:37.225Z,1023.86
2018-12-15T02:33:37.203Z,1023.85
2018-12-15T02:34:37.160Z,1023.83
2018-12-15T02:35:37.160Z,1023.85
2018-12-15T02:36:37.140Z,1023.87
2018-12-15T02:37:37.135Z,1023.85
2018-12-15T02:38:37.166Z,1023.83
2018-12-15T02:39:37.118Z,1023.90
2018-12-15T02:40:37.105Z,1023.86
2018-12-15T02:41:37.093Z,1023.89
2018-12-15T02:42:37.077Z,1023.87
2018-12-15T02:43:37.093Z,1023.88
2018-12-15T02:44:37.084Z,1023.88
2018-12-15T02:45:37.044Z,1023.91
2018-12-15T02:46:37.040Z,1023.85
2018-12-15T02:47:41.415Z,1023.86
2018-12-15T02:48:37.014Z,1023.87
2018-12-15T02:49:37.012Z,1023.87
2018-12-15T02:50:37.027Z,1023.83
2018-12-15T02:51:36.987Z,1023.81
2018-12-15T02:52:36.976Z,1023.83
2018-12-15T02:53:36.966Z,1023.80
2018-12-15T02:54:36.950Z,1023.85
2018-12-15T02:55:36.938Z,1023.81
2018-12-15T02:56:36.952Z,1023.86
2018-12-15T02:57:36.917Z,1023.83
2018-12-15T02:58:36.910Z,1023.82
2018-12-15T02:59:36.900Z,1023.86
2018-12-15T03:00:36.909Z,1023.84
2018-12-15T03:01:36.881Z,1023.87
2018-12-15T03:02:36.865Z,1023.85
2018-12-15T03:03:36.854Z,1023.88
2018-12-15T03:04:36.869Z,1023.86
2018-12-15T03:05:36.838Z,1023.94
2018-12-15T03:06:36.851Z,1023.92
2018-12-15T03:07:36.809Z,1023.93
2018-12-15T03:08:36.797Z,1023.95
2018-12-15T03:09:36.788Z,1023.91
2018-12-15T03:10:36.783Z,1023.94
2018-12-15T03:11:36.770Z,1023.93
2018-12-15T03:12:36.782Z,1023.94
2018-12-15T03:13:36.949Z,1023.92
2018-12-15T03:14:36.734Z,1023.93
2018-12-15T03:15:36.723Z,1023.94
2018-12-15T03:16:36.712Z,1023.91
2018-12-15T03:17:36.723Z,1023.98
2018-12-15T03:18:36.708Z,1023.99
2018-12-15T03:19:36.684Z,1023.94
2018-12-15T03:20:36.668Z,1023.97
2018-12-15T03:21:36.657Z,1023.94
2018-12-15T03:22:36.698Z,1024.02
2018-12-15T03:23:36.640Z,1024.00
2018-12-15T03:24:36.630Z,1023.97
2018-12-15T03:25:36.621Z,1023.99
2018-12-15T03:26:36.608Z,1024.03
2018-12-15T03:27:36.598Z,1024.03
2018-12-15T03:28:36.605Z,1023.97
2018-12-15T03:29:36.572Z,1024.02
2018-12-15T03:30:36.570Z,1024.04
2018-12-15T03:31:36.557Z,1024.06
2018-12-15T03:32:36.588Z,1024.03
2018-12-15T03:33:36.539Z,1024.03
2018-12-15T03:34:36.516Z,1024.02
2018-12-15T03:35:36.511Z,1024.01
2018-12-15T03:36:36.502Z,1024.04
2018-12-15T03:37:36.498Z,1024.03
2018-12-15T03:38:36.503Z,1024.01
2018-12-15T03:39:36.486Z,1023.97
2018-12-15T03:40:36.456Z,1024.02
2018-12-15T03:41:36.443Z,1023.97
2018-12-15T03:42:36.442Z,1024.03
2018-12-15T03:43:36.430Z,1024.02
2018-12-15T03:44:36.439Z,1024.02
2018-12-15T03:45:36.409Z,1024.02
2018-12-15T03:46:36.397Z,1023.99
2018-12-15T03:47:36.381Z,1024.01
2018-12-15T03:48:36.389Z,1024.02
2018-12-15T03:49:36.384Z,1024.04
2018-12-15T03:50:36.353Z,1024.02
2018-12-15T03:51:36.341Z,1024.02
2018-12-15T03:52:36.327Z,1024.02
2018-12-15T03:53:36.318Z,1024.01
2018-12-15T03:54:36.332Z,1024.03
2018-12-15T03:55:36.307Z,1024.03
2018-12-15T03:56:36.292Z,1024.04
2018-12-15T03:57:36.279Z,1024.05
2018-12-15T03:58:36.261Z,1024.02
2018-12-15T03:59:36.274Z,1024.04
2018-12-15T04:00:36.245Z,1024.03
2018-12-15T04:01:36.233Z,1024.02
2018-12-15T04:02:36.225Z,1024.04
2018-12-15T04:03:36.219Z,1024.02
2018-12-15T04:04:36.230Z,1024.02
2018-12-15T04:05:36.193Z,1024.01
2018-12-15T04:06:36.175Z,1024.06
2018-12-15T04:07:36.166Z,1024.06
2018-12-15T04:08:36.161Z,1024.00
2018-12-15T04:09:36.181Z,1023.99
2018-12-15T04:10:36.136Z,1024.02
2018-12-15T04:11:36.122Z,1023.99
2018-12-15T04:12:36.112Z,1023.99
2018-12-15T04:13:36.102Z,1023.98
2018-12-15T04:14:36.098Z,1023.97
2018-12-15T04:15:36.106Z,1023.95
2018-12-15T04:16:36.074Z,1023.93
2018-12-15T04:17:36.066Z,1023.96
2018-12-15T04:18:36.049Z,1023.97
2018-12-15T04:19:36.039Z,1023.96
2018-12-15T04:20:36.048Z,1023.93
2018-12-15T04:21:36.016Z,1023.98
2018-12-15T04:22:36.015Z,1024.00
2018-12-15T04:23:36.000Z,1023.99
2018-12-15T04:24:35.988Z,1023.98
2018-12-15T04:25:35.997Z,1023.97
2018-12-15T04:26:35.968Z,1024.00
2018-12-15T04:27:35.957Z,1023.98
2018-12-15T04:28:35.946Z,1023.99
2018-12-15T04:29:35.936Z,1023.95
2018-12-15T04:30:35.941Z,1023.97
2018-12-15T04:31:35.933Z,1023.96
2018-12-15T04:32:35.896Z,1023.94
2018-12-15T04:33:35.888Z,1023.91
2018-12-15T04:34:35.882Z,1023.96
2018-12-15T04:35:35.874Z,1023.91
2018-12-15T04:36:35.888Z,1023.94
2018-12-15T04:37:35.854Z,1023.92
2018-12-15T04:38:35.839Z,1023.96
2018-12-15T04:39:35.823Z,1023.94
2018-12-15T04:40:35.818Z,1023.92
2018-12-15T04:41:35.830Z,1023.95
2018-12-15T04:42:35.789Z,1023.93
2018-12-15T04:43:35.803Z,1023.96
2018-12-15T04:44:35.772Z,1023.93
2018-12-15T04:45:35.778Z,1023.95
2018-12-15T04:46:35.787Z,1023.96
2018-12-15T04:47:35.742Z,1023.95
2018-12-15T04:48:35.745Z,1023.96
2018-12-15T04:49:35.721Z,1023.99
2018-12-15T04:50:35.736Z,1023.97
2018-12-15T04:51:35.723Z,1024.03
2018-12-15T04:52:35.684Z,1024.03
2018-12-15T04:53:35.676Z,1024.03
2018-12-15T04:54:35.669Z,1024.03
2018-12-15T04:55:35.659Z,1024.10
2018-12-15T04:56:35.639Z,1024.07
2018-12-15T04:57:35.654Z,1024.04
2018-12-15T04:58:35.625Z,1024.05
2018-12-15T04:59:35.614Z,1024.06
2018-12-15T05:00:35.607Z,1024.09
2018-12-15T05:01:35.594Z,1024.06
2018-12-15T05:02:35.602Z,1024.08
2018-12-15T05:03:35.568Z,1024.03
2018-12-15T05:04:35.557Z,1024.04
2018-12-15T05:05:35.546Z,1024.01
2018-12-15T05:06:35.540Z,1024.07
2018-12-15T05:07:35.550Z,1023.97
2018-12-15T05:08:35.518Z,1023.99
2018-12-15T05:09:35.507Z,1024.01
2018-12-15T05:10:35.493Z,1024.02
2018-12-15T05:11:35.480Z,1023.99
2018-12-15T05:12:35.497Z,1023.99
2018-12-15T05:13:35.465Z,1023.96
2018-12-15T05:14:35.449Z,1023.95
2018-12-15T05:15:35.458Z,1024.01
2018-12-15T05:16:35.425Z,1023.96
2018-12-15T05:17:35.431Z,1023.99
2018-12-15T05:18:35.411Z,1024.01
2018-12-15T05:19:35.399Z,1024.04
2018-12-15T05:20:35.416Z,1024.01
2018-12-15T05:21:35.384Z,1024.00
2018-12-15T05:22:35.363Z,1024.01
2018-12-15T05:23:35.351Z,1024.04
2018-12-15T05:24:35.342Z,1024.03
2018-12-15T05:25:35.353Z,1024.01
2018-12-15T05:26:35.328Z,1024.02
2018-12-15T05:27:35.312Z,1024.01
2018-12-15T05:28:35.299Z,1024.00
2018-12-15T05:29:35.291Z,1024.03
2018-12-15T05:30:35.303Z,1024.02
2018-12-15T05:31:35.270Z,1024.03
2018-12-15T05:32:35.260Z,1023.99
2018-12-15T05:33:35.251Z,1024.04
2018-12-15T05:34:35.233Z,1024.07
2018-12-15T05:35:35.244Z,1024.06
2018-12-15T05:36:35.215Z,1024.04
2018-12-15T05:37:35.200Z,1024.06
2018-12-15T05:38:35.197Z,1024.04
2018-12-15T05:39:35.187Z,1024.08
2018-12-15T05:40:35.174Z,1024.06
2018-12-15T05:41:35.192Z,1024.05
2018-12-15T05:42:35.150Z,1024.07
2018-12-15T05:43:35.136Z,1024.07
2018-12-15T05:44:35.134Z,1024.07
2018-12-15T05:45:35.120Z,1024.07
2018-12-15T05:46:35.143Z,1024.13
2018-12-15T05:47:35.094Z,1024.10
2018-12-15T05:48:35.084Z,1024.08
2018-12-15T05:49:35.141Z,1024.14
2018-12-15T05:50:35.068Z,1024.08
2018-12-15T05:51:35.059Z,1024.10
2018-12-15T05:52:35.075Z,1024.14
2018-12-15T05:53:35.036Z,1024.11
2018-12-15T05:54:35.022Z,1024.13
2018-12-15T05:55:35.012Z,1024.15
2018-12-15T05:56:34.999Z,1024.14
2018-12-15T05:57:35.019Z,1024.15
2018-12-15T05:58:34.984Z,1024.09
2018-12-15T05:59:34.975Z,1024.09
2018-12-15T06:00:34.955Z,1024.13
2018-12-15T06:01:34.947Z,1024.12
2018-12-15T06:02:34.946Z,1024.18
2018-12-15T06:03:34.951Z,1024.17
2018-12-15T06:04:34.921Z,1024.15
2018-12-15T06:05:34.908Z,1024.16
2018-12-15T06:06:34.890Z,1024.16
2018-12-15T06:07:34.882Z,1024.12
2018-12-15T06:08:34.898Z,1024.11
2018-12-15T06:09:34.860Z,1024.07
2018-12-15T06:10:34.856Z,1024.09
2018-12-15T06:11:34.844Z,1024.12
2018-12-15T06:12:34.832Z,1024.12
2018-12-15T06:13:34.824Z,1024.10
2018-12-15T06:14:34.826Z,1024.13
2018-12-15T06:15:34.796Z,1024.13
2018-12-15T06:16:34.790Z,1024.16
2018-12-15T06:17:34.782Z,1024.17
2018-12-15T06:18:34.784Z,1024.13
2018-12-15T06:19:34.787Z,1024.16
2018-12-15T06:20:34.747Z,1024.13
2018-12-15T06:21:34.736Z,1024.14
2018-12-15T06:22:34.729Z,1024.15
2018-12-15T06:23:34.716Z,1024.17
2018-12-15T06:24:34.707Z,1024.18
2018-12-15T06:25:34.739Z,1024.19
2018-12-15T06:26:34.678Z,1024.17
2018-12-15T06:27:34.677Z,1024.21
2018-12-15T06:28:34.657Z,1024.28
2018-12-15T06:29:34.649Z,1024.29
2018-12-15T06:30:34.766Z,1024.28
2018-12-15T06:31:34.628Z,1024.27
2018-12-15T06:32:34.614Z,1024.24
2018-12-15T06:33:34.602Z,1024.30
2018-12-15T06:34:34.598Z,1024.27
2018-12-15T06:35:34.609Z,1024.36
2018-12-15T06:36:34.608Z,1024.34
2018-12-15T06:37:34.570Z,1024.35
2018-12-15T06:38:34.557Z,1024.36
2018-12-15T06:39:34.540Z,1024.32
2018-12-15T06:40:34.529Z,1024.34
2018-12-15T06:41:34.518Z,1024.30
2018-12-15T06:42:34.546Z,1024.36
2018-12-15T06:43:34.500Z,1024.38
2018-12-15T06:44:34.490Z,1024.39
2018-12-15T06:45:34.485Z,1024.39
2018-12-15T06:46:34.471Z,1024.38
2018-12-15T06:47:34.465Z,1024.37
2018-12-15T06:48:38.153Z,1024.41
2018-12-15T06:49:34.440Z,1024.40
2018-12-15T06:50:34.422Z,1024.44
2018-12-15T06:51:34.410Z,1024.41
2018-12-15T06:52:34.399Z,1024.43
2018-12-15T06:53:34.411Z,1024.45
2018-12-15T06:54:34.385Z,1024.44
2018-12-15T06:55:34.378Z,1024.47
2018-12-15T06:56:34.368Z,1024.43
2018-12-15T06:57:34.355Z,1024.50
2018-12-15T06:58:34.373Z,1024.48
2018-12-15T06:59:34.326Z,1024.47
2018-12-15T07:00:34.315Z,1024.46
2018-12-15T07:01:34.306Z,1024.45
2018-12-15T07:02:34.300Z,1024.41
2018-12-15T07:03:34.289Z,1024.39
2018-12-15T07:04:34.296Z,1024.39
2018-12-15T07:05:34.287Z,1024.42
2018-12-15T07:06:34.255Z,1024.44
2018-12-15T07:07:34.270Z,1024.45
2018-12-15T07:08:34.236Z,1024.46
2018-12-15T07:09:34.233Z,1024.43
2018-12-15T07:10:34.234Z,1024.44
2018-12-15T07:11:34.197Z,1024.48
2018-12-15T07:12:34.185Z,1024.46
2018-12-15T07:13:34.182Z,1024.47
2018-12-15T07:14:34.170Z,1024.46
2018-12-15T07:15:34.195Z,1024.41
2018-12-15T07:16:34.151Z,1024.41
2018-12-15T07:17:34.143Z,1024.45
2018-12-15T07:18:34.127Z,1024.47
2018-12-15T07:19:34.114Z,1024.48
2018-12-15T07:20:34.130Z,1024.45
2018-12-15T07:21:34.104Z,1024.46
2018-12-15T07:22:34.081Z,1024.46
2018-12-15T07:23:34.072Z,1024.50
2018-12-15T07:24:34.061Z,1024.49
2018-12-15T07:25:34.078Z,1024.50
2018-12-15T07:26:34.044Z,1024.49
2018-12-15T07:27:34.033Z,1024.49
2018-12-15T07:28:34.031Z,1024.46
2018-12-15T07:29:34.016Z,1024.49
2018-12-15T07:30:33.998Z,1024.49
2018-12-15T07:31:34.010Z,1024.45
2018-12-15T07:32:33.974Z,1024.45
2018-12-15T07:33:33.962Z,1024.41
2018-12-15T07:34:33.961Z,1024.42
2018-12-15T07:35:33.989Z,1024.44
2018-12-15T07:36:33.931Z,1024.45
2018-12-15T07:37:33.994Z,1024.46
2018-12-15T07:38:33.914Z,1024.47
2018-12-15T07:39:33.906Z,1024.52
2018-12-15T07:40:33.893Z,1024.48
2018-12-15T07:41:33.904Z,1024.46
2018-12-15T07:42:33.872Z,1024.46
2018-12-15T07:43:33.855Z,1024.47
2018-12-15T07:44:33.879Z,1024.49
2018-12-15T07:45:33.837Z,1024.49
2018-12-15T07:46:33.879Z,1024.53
2018-12-15T07:47:33.829Z,1024.54
2018-12-15T07:48:33.895Z,1024.55
2018-12-15T07:49:33.796Z,1024.59
2018-12-15T07:50:33.781Z,1024.59
2018-12-15T07:51:33.785Z,1024.52
2018-12-15T07:52:33.794Z,1024.55
2018-12-15T07:53:33.834Z,1024.56
2018-12-15T07:54:34.820Z,1024.48
2018-12-15T07:55:33.735Z,1024.51
2018-12-15T07:56:33.746Z,1024.55
2018-12-15T07:57:33.707Z,1024.63
2018-12-15T07:58:33.838Z,1024.60
2018-12-15T07:59:33.694Z,1024.59
2018-12-15T08:00:33.679Z,1024.53
2018-12-15T08:01:33.671Z,1024.53
2018-12-15T08:02:33.653Z,1024.58
2018-12-15T08:03:33.666Z,1024.63
2018-12-15T08:04:33.641Z,1024.60
2018-12-15T08:05:33.622Z,1024.60
2018-12-15T08:06:33.679Z,1024.54
2018-12-15T08:07:33.608Z,1024.55
2018-12-15T08:08:42.177Z,1024.54
2018-12-15T08:09:33.583Z,1024.58
2018-12-15T08:10:33.574Z,1024.57
2018-12-15T08:11:33.561Z,1024.64
2018-12-15T08:12:33.546Z,1024.59
2018-12-15T08:13:33.565Z,1024.62
2018-12-15T08:14:33.524Z,1024.58
2018-12-15T08:15:33.513Z,1024.64
2018-12-15T08:16:33.511Z,1024.65
2018-12-15T08:17:33.520Z,1024.63
2018-12-15T08:18:33.520Z,1024.65
2018-12-15T08:19:33.496Z,1024.63
2018-12-15T08:20:33.514Z,1024.64
2018-12-15T08:21:33.458Z,1024.68
2018-12-15T08:22:33.447Z,1024.62
2018-12-15T08:23:33.460Z,1024.58
2018-12-15T08:24:33.448Z,1024.59
2018-12-15T08:25:33.411Z,1024.61
2018-12-15T08:26:33.396Z,1024.62
2018-12-15T08:27:33.389Z,1024.61
2018-12-15T08:28:33.403Z,1024.62
2018-12-15T08:29:33.370Z,1024.59
2018-12-15T08:30:33.358Z,1024.58
2018-12-15T08:31:33.368Z,1024.60
2018-12-15T08:32:33.379Z,1024.60
2018-12-15T08:33:33.350Z,1024.62
2018-12-15T08:34:33.324Z,1024.61
2018-12-15T08:35:33.318Z,1024.61
2018-12-15T08:36:33.303Z,1024.61
2018-12-15T08:37:33.288Z,1024.64
2018-12-15T08:38:33.292Z,1024.65
2018-12-15T08:39:33.279Z,1024.64
2018-12-15T08:40:33.265Z,1024.64
2018-12-15T08:41:33.243Z,1024.66
2018-12-15T08:42:33.231Z,1024.66
2018-12-15T08:43:33.242Z,1024.63
2018-12-15T08:44:33.354Z,1024.64
2018-12-15T08:45:33.316Z,1024.60
2018-12-15T08:46:33.508Z,1024.59
2018-12-15T08:47:33.352Z,1024.58
2018-12-15T08:48:33.220Z,1024.57
2018-12-15T08:49:33.161Z,1024.58
2018-12-15T08:50:33.162Z,1024.58
2018-12-15T08:51:33.159Z,1024.55
2018-12-15T08:52:33.150Z,1024.54
2018-12-15T08:53:33.108Z,1024.52
2018-12-15T08:54:33.123Z,1024.48
2018-12-15T08:55:33.153Z,1024.48
2018-12-15T08:56:33.114Z,1024.50
2018-12-15T08:57:33.089Z,1024.48
2018-12-15T08:58:33.061Z,1024.51
2018-12-15T08:59:33.052Z,1024.50
2018-12-15T09:00:33.049Z,1024.54
2018-12-15T09:01:33.085Z,1024.53
2018-12-15T09:02:33.019Z,1024.50
2018-12-15T09:03:33.018Z,1024.53
2018-12-15T09:04:33.005Z,1024.55
2018-12-15T09:05:32.988Z,1024.54
2018-12-15T09:06:32.984Z,1024.54
2018-12-15T09:07:32.993Z,1024.57
2018-12-15T09:08:32.969Z,1024.60
2018-12-15T09:09:32.955Z,1024.55
2018-12-15T09:10:32.938Z,1024.55
2018-12-15T09:11:32.928Z,1024.55
2018-12-15T09:12:33.026Z,1024.56
2018-12-15T09:13:32.912Z,1024.53
2018-12-15T09:14:32.923Z,1024.53
2018-12-15T09:15:32.883Z,1024.55
2018-12-15T09:16:32.865Z,1024.58
2018-12-15T09:17:32.876Z,1024.55
2018-12-15T09:18:32.880Z,1024.52
2018-12-15T09:19:32.879Z,1024.57
2018-12-15T09:20:32.854Z,1024.57
2018-12-15T09:21:32.835Z,1024.58
2018-12-15T09:22:32.815Z,1024.59
2018-12-15T09:23:32.882Z,1024.58
2018-12-15T09:24:32.786Z,1024.57
2018-12-15T09:25:32.781Z,1024.55
2018-12-15T09:26:32.771Z,1024.55
2018-12-15T09:27:32.757Z,1024.58
2018-12-15T09:28:32.757Z,1024.57
2018-12-15T09:29:32.758Z,1024.56
2018-12-15T09:30:32.743Z,1024.53
2018-12-15T09:31:32.713Z,1024.57
2018-12-15T09:32:32.704Z,1024.52
2018-12-15T09:33:32.702Z,1024.53
2018-12-15T09:34:32.684Z,1024.50
2018-12-15T09:35:32.692Z,1024.47
2018-12-15T09:36:32.655Z,1024.48
2018-12-15T09:37:32.651Z,1024.51
2018-12-15T09:38:32.633Z,1024.46
2018-12-15T09:39:32.626Z,1024.52
2018-12-15T09:40:32.637Z,1024.46
2018-12-15T09:41:32.608Z,1024.42
2018-12-15T09:42:32.588Z,1024.47
2018-12-15T09:43:32.617Z,1024.47
2018-12-15T09:44:32.577Z,1024.43
2018-12-15T09:45:32.565Z,1024.42
2018-12-15T09:46:32.593Z,1024.41
2018-12-15T09:47:32.543Z,1024.42
2018-12-15T09:48:32.526Z,1024.43
2018-12-15T09:49:32.517Z,1024.43
2018-12-15T09:50:32.508Z,1024.45
2018-12-15T09:51:32.496Z,1024.44
2018-12-15T09:52:32.514Z,1024.41
2018-12-15T09:53:32.477Z,1024.42
2018-12-15T09:54:32.468Z,1024.43
2018-12-15T09:55:32.468Z,1024.42
2018-12-15T09:56:32.441Z,1024.37
2018-12-15T09:57:32.464Z,1024.39
2018-12-15T09:58:32.439Z,1024.39
2018-12-15T09:59:32.414Z,1024.36
2018-12-15T10:00:32.401Z,1024.36
2018-12-15T10:01:32.410Z,1024.39
2018-12-15T10:02:32.374Z,1024.37
2018-12-15T10:03:32.395Z,1024.37
2018-12-15T10:04:32.395Z,1024.35
2018-12-15T10:05:32.351Z,1024.36
2018-12-15T10:06:32.339Z,1024.31
2018-12-15T10:07:32.335Z,1024.33
2018-12-15T10:08:32.343Z,1024.25
2018-12-15T10:09:32.302Z,1024.32
2018-12-15T10:10:32.292Z,1024.32
2018-12-15T10:11:32.296Z,1024.28
2018-12-15T10:12:32.301Z,1024.31
2018-12-15T10:13:32.287Z,1024.26
2018-12-15T10:14:32.289Z,1024.27
2018-12-15T10:15:32.245Z,1024.24
2018-12-15T10:16:32.239Z,1024.23
2018-12-15T10:17:32.226Z,1024.23
2018-12-15T10:18:32.247Z,1024.22
2018-12-15T10:19:32.246Z,1024.18
2018-12-15T10:20:32.188Z,1024.20
2018-12-15T10:21:32.177Z,1024.22
2018-12-15T10:22:32.164Z,1024.15
2018-12-15T10:23:40.262Z,1024.12
2018-12-15T10:24:32.150Z,1024.10
2018-12-15T10:25:32.152Z,1024.09
2018-12-15T10:26:32.120Z,1024.07
2018-12-15T10:27:32.114Z,1024.05
2018-12-15T10:28:32.105Z,1024.04
2018-12-15T10:29:32.119Z,1024.06
2018-12-15T10:30:32.079Z,1024.02
2018-12-15T10:31:32.070Z,1024.02
2018-12-15T10:32:32.098Z,1024.07
2018-12-15T10:33:32.050Z,1023.99
2018-12-15T10:34:32.044Z,1024.02
2018-12-15T10:35:32.035Z,1024.02
2018-12-15T10:36:32.026Z,1024.00
2018-12-15T10:37:32.024Z,1023.99
2018-12-15T10:38:32.025Z,1024.01
2018-12-15T10:39:31.981Z,1023.99
2018-12-15T10:40:31.972Z,1023.98
2018-12-15T10:41:31.962Z,1023.97
2018-12-15T10:42:31.958Z,1024.00
2018-12-15T10:43:31.947Z,1023.97
2018-12-15T10:44:31.960Z,1023.96
2018-12-15T10:45:31.924Z,1023.92
2018-12-15T10:46:31.913Z,1023.92
2018-12-15T10:47:31.908Z,1023.92
2018-12-15T10:48:31.893Z,1023.90
2018-12-15T10:49:31.911Z,1023.88
2018-12-15T10:50:31.868Z,1023.87
2018-12-15T10:51:31.857Z,1023.90
2018-12-15T10:52:31.844Z,1023.86
2018-12-15T10:53:31.836Z,1023.86
2018-12-15T10:54:31.835Z,1023.86
2018-12-15T10:55:31.859Z,1023.87
2018-12-15T10:56:31.820Z,1023.88
2018-12-15T10:57:31.813Z,1023.85
2018-12-15T10:58:31.798Z,1023.88
2018-12-15T10:59:31.815Z,1023.85
2018-12-15T11:00:31.795Z,1023.80
2018-12-15T11:01:31.772Z,1023.83
2018-12-15T11:02:31.741Z,1023.83
2018-12-15T11:03:31.734Z,1023.80
2018-12-15T11:04:31.728Z,1023.79
2018-12-15T11:05:31.772Z,1023.85
2018-12-15T11:06:31.703Z,1023.82
2018-12-15T11:07:31.697Z,1023.84
2018-12-15T11:08:31.721Z,1023.78
2018-12-15T11:09:31.669Z,1023.81
2018-12-15T11:10:31.690Z,1023.80
2018-12-15T11:11:31.661Z,1023.77
2018-12-15T11:12:31.648Z,1023.78
2018-12-15T11:13:40.350Z,1023.76
2018-12-15T11:14:31.612Z,1023.75
2018-12-15T11:15:31.641Z,1023.73
2018-12-15T11:16:31.619Z,1023.75
2018-12-15T11:17:31.585Z,1023.74
2018-12-15T11:18:31.577Z,1023.80
2018-12-15T11:19:36.986Z,1023.73
2018-12-15T11:20:32.576Z,1023.79
2018-12-15T11:21:31.552Z,1023.81
2018-12-15T11:22:31.536Z,1023.73
2018-12-15T11:23:31.515Z,1023.73
2018-12-15T11:24:31.515Z,1023.74
2018-12-15T11:25:31.503Z,1023.74
2018-12-15T11:26:31.514Z,1023.76
2018-12-15T11:27:31.478Z,1023.72
2018-12-15T11:28:31.463Z,1023.74
2018-12-15T11:29:31.495Z,1023.70
2018-12-15T11:30:31.464Z,1023.71
2018-12-15T11:31:31.461Z,1023.69
2018-12-15T11:32:31.453Z,1023.62
2018-12-15T11:33:31.409Z,1023.63
2018-12-15T11:34:31.400Z,1023.64
2018-12-15T11:35:31.400Z,1023.60
2018-12-15T11:36:31.433Z,1023.59
2018-12-15T11:37:31.382Z,1023.62
2018-12-15T11:38:31.463Z,1023.60
2018-12-15T11:39:31.405Z,1023.58
2018-12-15T11:40:31.335Z,1023.59
2018-12-15T11:41:31.326Z,1023.52
2018-12-15T11:42:31.335Z,1023.50
2018-12-15T11:43:31.323Z,1023.51
2018-12-15T11:44:31.301Z,1023.45
2018-12-15T11:45:31.805Z,1023.47
2018-12-15T11:46:31.272Z,1023.44
2018-12-15T11:47:31.291Z,1023.47
2018-12-15T11:48:31.262Z,1023.46
2018-12-15T11:49:31.281Z,1023.49
2018-12-15T11:50:31.234Z,1023.43
2018-12-15T11:51:31.226Z,1023.45
2018-12-15T11:52:31.207Z,1023.49
2018-12-15T11:53:31.230Z,1023.44
2018-12-15T11:54:31.199Z,1023.41
2018-12-15T11:55:31.200Z,1023.42
2018-12-15T11:56:31.164Z,1023.43
2018-12-15T11:57:31.156Z,1023.42
2018-12-15T11:58:31.195Z,1023.49
2018-12-15T11:59:31.138Z,1023.45
2018-12-15T12:00:31.129Z,1023.41
2018-12-15T12:01:31.118Z,1023.42
2018-12-15T12:02:32.002Z,1023.40
2018-12-15T12:03:31.111Z,1023.43
2018-12-15T12:04:31.111Z,1023.42
2018-12-15T12:05:31.106Z,1023.41